Time;durP1;ratioP1;P1;durP2;ratioP2;P2;SDS_P1;SDS_P2;PMS_P1;PMS_P2;Temp;Humidity;BMP_temperature;BMP_pressure;BME280_temperature;BME280_humidity;BME280_pressure;Samples;Min_cycle;Max_cycle;Signal;HPM_P1;HPM_P2
2023/09/16 00:01:13;;;;;;;9.70;8.63;;;;;;;14.70;95.00;101338.13;5044838;28;20502;-52
2023/09/16 00:03:38;;;;;;;11.35;9.65;;;;;;;14.70;94.83;101332.78;5053548;28;20104;-52
2023/09/16 00:06:04;;;;;;;11.32;9.68;;;;;;;14.65;95.39;101330.50;5050868;28;20476;-52
2023/09/16 00:08:32;;;;;;;14.05;9.90;;;;;;;14.65;95.43;101329.66;5048461;28;20356;-52
2023/09/16 00:10:57;;;;;;;11.90;9.88;;;;;;;14.63;95.48;101326.28;5043380;28;20038;-52
2023/09/16 00:13:23;;;;;;;11.05;9.90;;;;;;;14.60;95.40;101330.91;5046022;28;20123;-52
2023/09/16 00:15:48;;;;;;;14.52;10.07;;;;;;;14.58;95.51;101334.66;5050166;28;20166;-52
2023/09/16 00:18:15;;;;;;;12.95;10.63;;;;;;;14.52;95.59;101336.03;5050868;28;20032;-52
2023/09/16 00:20:41;;;;;;;14.73;11.00;;;;;;;14.50;95.82;101353.16;5049965;28;20040;-53
2023/09/16 00:23:06;;;;;;;12.88;11.50;;;;;;;14.52;95.33;101353.88;5051090;28;20425;-52
2023/09/16 00:25:32;;;;;;;13.35;11.77;;;;;;;14.46;95.66;101360.59;5057674;28;20047;-51
2023/09/16 00:27:58;;;;;;;15.13;11.50;;;;;;;14.44;96.38;101352.72;5048985;28;20159;-52
2023/09/16 00:30:23;;;;;;;13.73;12.00;;;;;;;14.41;97.08;101350.28;5047448;28;20541;-54
2023/09/16 00:32:48;;;;;;;13.60;11.73;;;;;;;14.39;96.86;101352.25;5053728;28;20029;-52
2023/09/16 00:35:14;;;;;;;13.07;11.68;;;;;;;14.40;95.87;101353.09;5059291;28;20017;-51
2023/09/16 00:37:41;;;;;;;14.35;12.25;;;;;;;14.37;96.56;101340.84;5052738;28;20486;-52
2023/09/16 00:40:07;;;;;;;13.35;11.75;;;;;;;14.34;96.16;101337.56;5052990;28;20048;-52
2023/09/16 00:42:37;;;;;;;16.27;11.95;;;;;;;14.32;96.40;101336.88;5054417;28;20083;-51
2023/09/16 00:45:04;;;;;;;13.90;12.43;;;;;;;14.30;96.64;101338.81;5047860;28;20423;-52
2023/09/16 00:47:29;;;;;;;15.30;12.48;;;;;;;14.28;96.98;101332.78;5041542;28;20032;-54
2023/09/16 00:49:55;;;;;;;18.60;12.75;;;;;;;14.25;97.17;101334.72;5048664;28;20021;-51
2023/09/16 00:52:20;;;;;;;14.77;13.13;;;;;;;14.23;97.79;101325.97;5051605;28;20491;-54
2023/09/16 00:54:50;;;;;;;14.32;12.48;;;;;;;14.24;96.59;101324.16;5056639;28;20052;-52
2023/09/16 00:57:15;;;;;;;14.98;13.13;;;;;;;14.23;96.58;101315.28;5048882;28;20029;-51
2023/09/16 00:59:41;;;;;;;13.63;12.23;;;;;;;14.22;96.70;101313.63;5046515;28;20548;-51
2023/09/16 01:02:09;;;;;;;13.27;11.88;;;;;;;14.19;96.75;101313.88;5051956;28;20025;-51
2023/09/16 01:04:36;;;;;;;16.13;13.15;;;;;;;14.15;97.11;101314.25;5047660;28;20415;-51
2023/09/16 01:07:02;;;;;;;14.90;12.35;;;;;;;14.13;97.45;101311.69;5051305;28;20482;-51
2023/09/16 01:09:28;;;;;;;15.98;12.60;;;;;;;14.07;97.93;101317.56;5047439;28;20472;-52
2023/09/16 01:11:54;;;;;;;15.70;13.43;;;;;;;14.05;98.13;101309.69;5049155;28;20064;-51
2023/09/16 01:14:19;;;;;;;15.63;12.75;;;;;;;14.05;98.04;101308.81;5043955;28;20068;-53
2023/09/16 01:17:08;;;;;;;14.88;12.85;;;;;;;14.00;97.51;101300.34;5051492;28;20024;-51
2023/09/16 01:19:52;;;;;;;16.52;13.20;;;;;;;14.05;98.08;101311.50;5043420;28;20037;-51
2023/09/16 01:22:18;;;;;;;14.10;12.43;;;;;;;14.01;98.52;101308.25;5045775;28;20556;-51
2023/09/16 01:24:51;;;;;;;15.70;12.32;;;;;;;13.97;98.42;101308.63;5052245;28;20013;-51
2023/09/16 01:27:16;;;;;;;15.35;12.65;;;;;;;13.96;98.39;101315.78;5045684;28;20502;-52
2023/09/16 01:29:41;;;;;;;13.70;11.98;;;;;;;13.93;98.78;101309.88;5050718;28;20116;-51
2023/09/16 01:32:10;;;;;;;14.27;12.27;;;;;;;13.90;98.66;101310.97;5052427;28;20036;-51
2023/09/16 01:34:49;;;;;;;15.95;12.40;;;;;;;13.92;99.03;101316.16;5047732;28;20044;-51
2023/09/16 01:37:19;;;;;;;15.70;11.38;;;;;;;13.90;98.89;101312.78;5040664;28;20076;-53
2023/09/16 01:39:56;;;;;;;15.05;12.27;;;;;;;13.90;98.73;101310.97;5048472;28;20029;-52
2023/09/16 01:42:22;;;;;;;14.50;12.02;;;;;;;13.86;98.92;101314.88;5045685;28;20036;-51
2023/09/16 01:44:48;;;;;;;13.02;11.65;;;;;;;13.83;99.05;101309.78;5047179;28;20418;-53
2023/09/16 01:47:13;;;;;;;13.20;11.55;;;;;;;13.81;99.00;101307.25;5046420;28;20025;-51
2023/09/16 01:49:39;;;;;;;13.25;11.93;;;;;;;13.80;98.90;101297.53;5045061;28;20501;-52
2023/09/16 01:52:05;;;;;;;13.15;11.75;;;;;;;13.80;98.83;101302.03;5044129;28;20029;-51
2023/09/16 01:54:30;;;;;;;14.50;12.55;;;;;;;13.79;98.78;101294.97;5045168;28;20032;-52
2023/09/16 01:56:55;;;;;;;14.68;12.35;;;;;;;13.74;99.42;101298.06;5046509;28;20115;-51
2023/09/16 01:59:20;;;;;;;14.40;12.90;;;;;;;13.71;99.21;101300.97;5048581;28;20118;-51
2023/09/16 02:01:46;;;;;;;14.80;12.60;;;;;;;13.68;99.18;101299.38;5044085;28;20299;-52
2023/09/16 02:04:12;;;;;;;16.48;12.65;;;;;;;13.67;99.49;101303.06;5054265;28;20083;-51
2023/09/16 02:06:38;;;;;;;14.15;12.70;;;;;;;13.65;99.50;101296.13;5049023;28;20040;-52
2023/09/16 02:09:03;;;;;;;15.13;12.95;;;;;;;13.61;99.82;101292.88;5048202;28;20020;-52
2023/09/16 02:11:30;;;;;;;16.17;12.75;;;;;;;13.61;99.59;101298.22;5044530;28;20122;-51
2023/09/16 02:13:58;;;;;;;15.95;13.68;;;;;;;13.56;99.87;101303.06;5049233;28;20070;-51
2023/09/16 02:16:23;;;;;;;14.93;11.95;;;;;;;13.55;100.00;101300.53;5045000;28;20064;-52
2023/09/16 02:18:48;;;;;;;13.93;12.30;;;;;;;13.55;100.00;101301.38;5049098;28;20056;-52
2023/09/16 02:21:15;;;;;;;16.33;12.15;;;;;;;13.52;100.00;101296.28;5049997;28;20048;-52
2023/09/16 02:23:40;;;;;;;12.80;11.35;;;;;;;13.50;100.00;101300.91;5046643;28;20021;-52
2023/09/16 02:26:06;;;;;;;15.48;11.25;;;;;;;13.50;100.00;101303.56;5044968;28;20116;-51
2023/09/16 02:28:31;;;;;;;13.30;10.48;;;;;;;13.45;99.97;101293.25;5040735;28;20068;-51
2023/09/16 02:30:56;;;;;;;15.27;11.15;;;;;;;13.44;100.00;101299.59;5045171;28;20022;-52
2023/09/16 02:33:22;;;;;;;13.52;10.90;;;;;;;13.39;100.00;101295.59;5048620;28;20438;-51
2023/09/16 02:35:47;;;;;;;12.73;10.95;;;;;;;13.40;100.00;101292.78;5045106;28;20029;-51
2023/09/16 02:38:12;;;;;;;14.02;10.43;;;;;;;13.36;100.00;101293.19;5044862;28;20427;-52
2023/09/16 02:40:41;;;;;;;13.23;11.48;;;;;;;13.37;100.00;101293.03;5047435;28;20269;-51
2023/09/16 02:43:07;;;;;;;13.48;11.43;;;;;;;13.36;100.00;101298.53;5045848;28;20059;-51
2023/09/16 02:45:40;;;;;;;14.43;11.40;;;;;;;13.35;100.00;101297.66;5047756;28;20026;-52
2023/09/16 02:48:06;;;;;;;13.98;10.55;;;;;;;13.30;100.00;101295.31;5043504;28;20029;-52
2023/09/16 02:50:36;;;;;;;13.80;10.85;;;;;;;13.33;100.00;101299.63;5047528;28;20086;-51
2023/09/16 02:53:02;;;;;;;13.43;11.90;;;;;;;13.34;100.00;101298.66;5042095;28;20108;-52
2023/09/16 02:55:28;;;;;;;12.50;10.57;;;;;;;13.32;100.00;101293.44;5047971;28;20033;-52
2023/09/16 02:57:54;;;;;;;15.07;11.88;;;;;;;13.31;100.00;101304.19;5033528;28;20057;-52
2023/09/16 03:00:19;;;;;;;13.98;11.10;;;;;;;13.31;100.00;101297.03;5043888;28;20021;-52
2023/09/16 03:02:51;;;;;;;13.55;12.15;;;;;;;13.28;100.00;101291.94;5044236;28;20086;-51
2023/09/16 03:05:17;;;;;;;13.93;11.55;;;;;;;13.31;100.00;101285.53;5049597;28;20360;-51
2023/09/16 03:07:44;;;;;;;13.60;11.35;;;;;;;13.30;100.00;101287.31;5043444;28;20090;-52
2023/09/16 03:10:09;;;;;;;12.80;11.23;;;;;;;13.30;100.00;101279.31;5042964;28;20029;-50
2023/09/16 03:12:35;;;;;;;13.88;10.95;;;;;;;13.29;100.00;101282.16;5043573;28;20060;-51
2023/09/16 03:15:00;;;;;;;13.20;11.80;;;;;;;13.27;100.00;101279.59;5047855;28;20029;-52
2023/09/16 03:17:26;;;;;;;12.80;10.80;;;;;;;13.27;100.00;101284.06;5044843;28;20060;-52
2023/09/16 03:19:52;;;;;;;13.18;11.05;;;;;;;13.24;100.00;101278.97;5049613;28;20051;-51
2023/09/16 03:22:17;;;;;;;14.88;10.55;;;;;;;13.24;100.00;101276.31;5043752;28;20025;-51
2023/09/16 03:24:43;;;;;;;11.23;10.05;;;;;;;13.23;100.00;101274.63;5046099;28;20113;-52
2023/09/16 03:27:08;;;;;;;17.77;11.55;;;;;;;13.24;100.00;101278.97;5046920;28;20029;-52
2023/09/16 03:29:34;;;;;;;15.07;11.48;;;;;;;13.24;100.00;101274.50;5045926;28;20120;-51
2023/09/16 03:31:59;;;;;;;14.30;11.55;;;;;;;13.24;100.00;101273.63;5041717;28;20048;-51
2023/09/16 03:34:24;;;;;;;14.85;11.88;;;;;;;13.23;100.00;101280.81;5045327;28;20052;-52
2023/09/16 03:36:50;;;;;;;14.48;11.15;;;;;;;13.22;100.00;101276.47;5042952;28;20051;-52
2023/09/16 03:39:16;;;;;;;12.82;11.05;;;;;;;13.21;100.00;101273.91;5043206;28;20420;-51
2023/09/16 03:41:41;;;;;;;14.57;12.15;;;;;;;13.21;100.00;101280.09;5040010;28;20437;-52
2023/09/16 03:44:06;;;;;;;14.63;12.15;;;;;;;13.19;100.00;101268.69;5040364;28;20132;-52
2023/09/16 03:46:32;;;;;;;14.70;12.05;;;;;;;13.19;100.00;101276.69;5047145;28;20426;-52
2023/09/16 03:48:58;;;;;;;13.63;12.02;;;;;;;13.20;100.00;101269.53;5042832;28;20491;-51
2023/09/16 03:51:26;;;;;;;17.30;12.75;;;;;;;13.21;100.00;101264.09;5045799;28;20059;-52
2023/09/16 03:53:52;;;;;;;17.63;12.75;;;;;;;13.20;100.00;101266.88;5038071;28;20040;-52
2023/09/16 03:56:17;;;;;;;14.07;12.52;;;;;;;13.17;100.00;101259.13;5044970;28;20021;-51
2023/09/16 03:58:43;;;;;;;15.20;12.10;;;;;;;13.16;100.00;101258.28;5053020;28;20025;-52
2023/09/16 04:01:08;;;;;;;15.77;12.68;;;;;;;13.12;100.00;101259.47;5057087;28;20033;-52
2023/09/16 04:03:33;;;;;;;14.35;11.93;;;;;;;13.10;100.00;101256.94;5047708;28;20025;-52
2023/09/16 04:05:59;;;;;;;14.65;12.15;;;;;;;13.08;100.00;101260.72;5043478;28;20031;-52
2023/09/16 04:08:26;;;;;;;15.70;12.38;;;;;;;13.07;100.00;101259.88;5055172;28;20025;-52
2023/09/16 04:10:52;;;;;;;15.70;11.80;;;;;;;13.06;100.00;101258.16;5043986;28;20029;-52
2023/09/16 04:13:17;;;;;;;17.15;12.32;;;;;;;13.06;100.00;101262.66;5050662;28;20391;-52
2023/09/16 04:15:43;;;;;;;14.35;11.77;;;;;;;13.04;100.00;101262.78;5051922;28;20030;-52
2023/09/16 04:18:08;;;;;;;14.82;12.32;;;;;;;13.03;100.00;101255.75;5053215;28;20382;-52
2023/09/16 04:20:34;;;;;;;15.70;12.20;;;;;;;13.04;100.00;101262.78;5053336;28;20040;-51
2023/09/16 04:22:59;;;;;;;15.18;11.90;;;;;;;13.03;100.00;101262.91;5048424;28;20059;-52
2023/09/16 04:25:24;;;;;;;15.50;12.25;;;;;;;13.05;100.00;101258.28;5046331;28;20024;-52
2023/09/16 04:27:49;;;;;;;13.50;11.98;;;;;;;12.99;100.00;101264.97;5056174;28;20054;-53
2023/09/16 04:30:15;;;;;;;15.18;11.75;;;;;;;13.00;100.00;101260.47;5046516;28;20033;-52
2023/09/16 04:32:43;;;;;;;14.10;11.30;;;;;;;12.99;100.00;101261.44;5052154;28;20048;-51
2023/09/16 04:35:08;;;;;;;13.07;11.57;;;;;;;12.97;100.00;101253.56;5047197;28;20112;-52
2023/09/16 04:37:36;;;;;;;15.55;12.77;;;;;;;12.98;100.00;101255.25;5051325;28;20100;-52
2023/09/16 04:40:05;;;;;;;13.73;12.05;;;;;;;12.94;100.00;101252.00;5046458;28;20025;-51
2023/09/16 04:42:30;;;;;;;13.02;11.43;;;;;;;12.92;100.00;101245.09;5053735;28;20573;-51
2023/09/16 04:44:58;;;;;;;16.00;11.82;;;;;;;12.92;100.00;101261.06;5045317;28;20128;-51
2023/09/16 04:47:23;;;;;;;14.55;12.00;;;;;;;12.92;100.00;101253.09;5049629;28;20021;-52
2023/09/16 04:49:49;;;;;;;14.20;12.00;;;;;;;12.87;100.00;101260.59;5046971;28;20349;-53
2023/09/16 04:52:14;;;;;;;15.88;12.80;;;;;;;12.84;100.00;101263.50;5047354;28;20467;-51
2023/09/16 04:54:40;;;;;;;15.30;12.30;;;;;;;12.85;100.00;101257.22;5053512;28;20112;-53
2023/09/16 04:57:06;;;;;;;14.18;12.48;;;;;;;12.81;100.00;101256.63;5054512;28;20430;-52
2023/09/16 04:59:34;;;;;;;17.75;11.60;;;;;;;12.85;100.00;101254.56;5048991;28;20033;-51
2023/09/16 05:01:59;;;;;;;15.73;12.73;;;;;;;12.84;100.00;101252.84;5044368;28;20453;-52
2023/09/16 05:04:25;;;;;;;14.30;11.95;;;;;;;12.82;100.00;101254.78;5048418;28;20030;-51
2023/09/16 05:06:50;;;;;;;14.85;11.63;;;;;;;12.81;100.00;101253.97;5046540;28;20490;-52
2023/09/16 05:09:15;;;;;;;18.20;12.07;;;;;;;12.81;100.00;101255.78;5045274;28;20383;-52
2023/09/16 05:11:43;;;;;;;15.30;12.60;;;;;;;12.81;100.00;101259.28;5046303;28;20025;-51
2023/09/16 05:14:08;;;;;;;15.48;11.82;;;;;;;12.80;100.00;101262.06;5047395;28;20119;-50
2023/09/16 05:16:33;;;;;;;16.85;12.63;;;;;;;12.77;100.00;101256.03;5048246;28;20116;-52
2023/09/16 05:18:59;;;;;;;16.25;11.77;;;;;;;12.79;100.00;101261.22;5050469;28;20025;-52
2023/09/16 05:21:24;;;;;;;15.07;12.07;;;;;;;12.77;100.00;101260.47;5044688;28;20420;-52
2023/09/16 05:23:52;;;;;;;15.90;12.90;;;;;;;12.77;100.00;101265.81;5049840;28;20024;-52
2023/09/16 05:26:17;;;;;;;17.15;12.90;;;;;;;12.74;100.00;101252.75;5048252;28;20119;-51
2023/09/16 05:28:42;;;;;;;16.92;12.85;;;;;;;12.78;100.00;101265.69;5047304;28;20112;-52
2023/09/16 05:31:09;;;;;;;15.98;12.05;;;;;;;12.74;100.00;101258.94;5051542;28;20021;-51
2023/09/16 05:33:34;;;;;;;15.65;12.77;;;;;;;12.78;100.00;101264.84;5041628;28;20044;-51
2023/09/16 05:35:59;;;;;;;16.42;12.73;;;;;;;12.80;100.00;101259.41;5054986;28;20104;-52
2023/09/16 05:38:25;;;;;;;15.73;12.10;;;;;;;12.79;100.00;101258.56;5044155;28;20395;-52
2023/09/16 05:40:50;;;;;;;17.38;12.35;;;;;;;12.79;100.00;101258.56;5037931;28;20057;-50
2023/09/16 05:43:15;;;;;;;16.17;13.27;;;;;;;12.80;100.00;101267.41;5043380;28;20048;-51
2023/09/16 05:45:41;;;;;;;14.25;12.75;;;;;;;12.80;100.00;101254.06;5042482;28;20017;-54
2023/09/16 05:48:07;;;;;;;16.75;13.15;;;;;;;12.82;100.00;101262.78;5036547;28;20029;-54
2023/09/16 05:50:32;;;;;;;15.20;12.18;;;;;;;12.81;100.00;101258.44;5045405;28;20030;-53
2023/09/16 05:52:58;;;;;;;16.65;12.50;;;;;;;12.83;100.00;101268.00;5049933;28;20067;-51
2023/09/16 05:55:23;;;;;;;16.95;12.88;;;;;;;12.84;100.00;101263.50;5043322;28;20029;-52
2023/09/16 05:57:50;;;;;;;17.25;12.75;;;;;;;12.88;100.00;101268.47;5046577;28;20407;-51
2023/09/16 06:00:15;;;;;;;14.98;12.18;;;;;;;12.88;100.00;101262.31;5047623;28;20478;-52
2023/09/16 06:02:41;;;;;;;16.33;13.18;;;;;;;12.89;100.00;101263.97;5040994;28;20297;-51
2023/09/16 06:05:07;;;;;;;17.85;14.40;;;;;;;12.91;100.00;101264.72;5038779;28;20029;-51
2023/09/16 06:07:33;;;;;;;19.38;14.95;;;;;;;12.96;100.00;101260.72;5039710;28;20124;-51
2023/09/16 06:09:59;;;;;;;17.67;15.05;;;;;;;13.00;100.00;101258.66;5045993;28;20105;-50
2023/09/16 06:12:24;;;;;;;19.05;14.60;;;;;;;13.04;100.00;101257.44;5040923;28;20480;-51
2023/09/16 06:14:49;;;;;;;16.80;14.85;;;;;;;13.07;100.00;101261.66;5036714;28;20039;-50
2023/09/16 06:17:14;;;;;;;16.90;14.95;;;;;;;13.09;100.00;101262.38;5039158;28;20034;-51
2023/09/16 06:19:40;;;;;;;18.38;14.32;;;;;;;13.10;100.00;101261.44;5036192;28;20547;-53
2023/09/16 06:22:09;;;;;;;17.05;14.73;;;;;;;13.14;100.00;101274.41;5034565;28;20041;-51
2023/09/16 06:24:34;;;;;;;18.05;14.75;;;;;;;13.20;100.00;101275.72;5035595;28;20041;-52
2023/09/16 06:27:00;;;;;;;18.45;15.57;;;;;;;13.26;100.00;101277.06;5039245;28;20018;-51
2023/09/16 06:29:25;;;;;;;19.33;16.27;;;;;;;13.30;100.00;101271.31;5046536;28;20064;-52
2023/09/16 06:31:50;;;;;;;21.55;16.73;;;;;;;13.35;100.00;101276.31;5045132;28;20021;-51
2023/09/16 06:34:16;;;;;;;18.98;16.50;;;;;;;13.41;100.00;101275.00;5039466;28;20029;-51
2023/09/16 06:36:41;;;;;;;24.90;17.10;;;;;;;13.46;100.00;101272.78;5039079;28;20048;-53
2023/09/16 06:39:07;;;;;;;18.55;15.85;;;;;;;13.51;100.00;101275.91;5042835;28;20017;-51
2023/09/16 06:41:33;;;;;;;19.83;17.05;;;;;;;13.56;100.00;101279.06;5043130;28;20028;-52
2023/09/16 06:43:58;;;;;;;19.50;17.42;;;;;;;13.64;100.00;101278.44;5050462;28;20044;-53
2023/09/16 06:46:24;;;;;;;21.75;18.50;;;;;;;13.71;100.00;101279.63;5045492;28;20391;-53
2023/09/16 06:48:49;;;;;;;20.52;18.15;;;;;;;13.78;100.00;101282.63;5042459;28;20025;-53
2023/09/16 06:51:14;;;;;;;19.85;17.70;;;;;;;13.87;100.00;101284.50;5044620;28;20028;-54
2023/09/16 06:53:40;;;;;;;20.65;18.23;;;;;;;13.95;100.00;101284.72;5040476;28;20583;-51
2023/09/16 06:56:05;;;;;;;20.77;18.55;;;;;;;14.03;100.00;101282.25;5048506;28;20036;-51
2023/09/16 06:58:30;;;;;;;20.52;18.33;;;;;;;14.12;100.00;101275.31;5043449;28;20126;-52
2023/09/16 07:00:56;;;;;;;20.40;18.40;;;;;;;14.20;100.00;101270.13;5046043;28;20044;-51
2023/09/16 07:03:21;;;;;;;21.50;19.17;;;;;;;14.28;100.00;101266.81;5047917;28;20028;-51
2023/09/16 07:05:48;;;;;;;26.20;20.58;;;;;;;14.39;100.00;101268.56;5041380;28;20033;-51
2023/09/16 07:08:14;;;;;;;24.15;20.48;;;;;;;14.51;100.00;101272.84;5046804;28;20028;-51
2023/09/16 07:10:39;;;;;;;22.10;19.80;;;;;;;14.62;100.00;101266.59;5043374;28;20029;-53
2023/09/16 07:13:05;;;;;;;22.23;19.75;;;;;;;14.76;100.00;101273.44;5043630;28;20091;-51
2023/09/16 07:15:30;;;;;;;22.55;19.73;;;;;;;14.88;100.00;101266.16;5046023;28;20017;-51
2023/09/16 07:17:55;;;;;;;21.17;19.00;;;;;;;15.05;100.00;101270.00;5040729;28;20096;-51
2023/09/16 07:20:22;;;;;;;21.80;19.13;;;;;;;15.23;100.00;101273.72;5046606;28;20112;-51
2023/09/16 07:22:49;;;;;;;24.55;18.90;;;;;;;15.43;100.00;101266.56;5048443;28;20036;-51
2023/09/16 07:25:15;;;;;;;21.40;18.67;;;;;;;15.64;100.00;101261.09;5049352;28;20037;-51
2023/09/16 07:27:40;;;;;;;20.10;18.10;;;;;;;15.90;100.00;101272.13;5048444;28;20033;-51
2023/09/16 07:30:06;;;;;;;21.20;18.83;;;;;;;16.13;100.00;101273.63;5041694;28;20386;-51
2023/09/16 07:32:31;;;;;;;19.80;17.80;;;;;;;16.34;100.00;101271.63;5046911;28;20033;-50
2023/09/16 07:34:56;;;;;;;18.42;16.27;;;;;;;16.62;100.00;101274.34;5043603;28;20443;-50
2023/09/16 07:37:22;;;;;;;19.88;16.38;;;;;;;16.77;100.00;101272.91;5050438;28;20506;-50
2023/09/16 07:39:49;;;;;;;17.60;15.13;;;;;;;16.91;100.00;101276.13;5037064;28;20112;-51
2023/09/16 07:42:15;;;;;;;18.52;14.82;;;;;;;17.09;100.00;101278.84;5046588;28;20029;-50
2023/09/16 07:44:40;;;;;;;16.58;14.68;;;;;;;17.30;99.74;101276.75;5037727;28;20049;-51
2023/09/16 07:47:05;;;;;;;16.30;14.63;;;;;;;17.49;97.57;101283.00;5048072;28;20071;-50
2023/09/16 07:49:30;;;;;;;18.40;14.68;;;;;;;17.74;98.06;101279.53;5045105;28;20044;-51
2023/09/16 07:51:56;;;;;;;17.08;14.30;;;;;;;17.96;95.43;101280.09;5044389;28;20105;-50
2023/09/16 07:54:22;;;;;;;16.20;14.10;;;;;;;18.17;95.05;101276.19;5042541;28;20384;-51
2023/09/16 07:56:47;;;;;;;20.95;14.63;;;;;;;18.42;96.37;101285.31;5045095;28;20045;-51
2023/09/16 07:59:17;;;;;;;18.95;14.55;;;;;;;18.59;94.26;101278.19;5035116;28;20041;-51
2023/09/16 08:01:43;;;;;;;15.15;13.57;;;;;;;18.84;92.04;101284.56;5035660;28;20369;-51
2023/09/16 08:04:08;;;;;;;16.05;12.90;;;;;;;19.02;91.12;101288.00;5041562;28;20033;-50
2023/09/16 08:06:33;;;;;;;15.68;12.50;;;;;;;19.24;90.88;101291.09;5044281;28;20075;-50
2023/09/16 08:08:59;;;;;;;14.07;11.30;;;;;;;19.43;89.66;101289.97;5040387;28;20582;-51
2023/09/16 08:11:24;;;;;;;14.05;11.88;;;;;;;19.62;88.43;101290.66;5047200;28;20032;-51
2023/09/16 08:13:51;;;;;;;13.45;11.30;;;;;;;19.81;88.72;101297.66;5049664;28;20058;-51
2023/09/16 08:16:16;;;;;;;16.85;11.90;;;;;;;19.95;86.97;101289.72;5052577;28;20025;-51
2023/09/16 08:18:41;;;;;;;12.60;11.30;;;;;;;20.21;86.12;101293.25;5049174;28;20029;-51
2023/09/16 08:21:07;;;;;;;13.52;11.63;;;;;;;20.31;85.26;101294.75;5045998;28;20025;-52
2023/09/16 08:23:32;;;;;;;12.05;10.68;;;;;;;20.51;87.36;101294.38;5045836;28;20074;-51
2023/09/16 08:25:57;;;;;;;13.18;11.10;;;;;;;20.74;84.27;101294.53;5042369;28;20025;-51
2023/09/16 08:28:23;;;;;;;13.30;11.20;;;;;;;20.96;82.31;101301.03;5048176;28;20090;-51
2023/09/16 08:30:48;;;;;;;12.65;11.35;;;;;;;21.11;80.47;101308.41;5041039;28;20495;-51
2023/09/16 08:33:13;;;;;;;15.02;11.15;;;;;;;21.22;79.31;101298.03;5046607;28;20043;-51
2023/09/16 08:35:39;;;;;;;15.82;10.50;;;;;;;21.47;78.62;101311.47;5043843;28;20022;-51
2023/09/16 08:38:04;;;;;;;13.37;10.73;;;;;;;21.75;77.01;101325.31;5050769;28;20026;-51
2023/09/16 08:40:32;;;;;;;17.58;10.60;;;;;;;21.87;77.00;101322.19;5044003;28;20382;-51
2023/09/16 08:43:34;;;;;;;12.27;10.40;;;;;;;22.04;79.12;101318.31;5050040;28;20028;-51
2023/09/16 08:46:02;;;;;;;12.90;9.95;;;;;;;22.20;75.51;101320.06;5057421;28;20025;-51
2023/09/16 08:48:32;;;;;;;12.60;9.82;;;;;;;22.44;76.00;101319.00;5054528;28;20479;-51
2023/09/16 08:51:01;;;;;;;11.38;9.27;;;;;;;22.68;73.62;101325.19;5044280;28;20033;-51
2023/09/16 08:53:29;;;;;;;12.77;9.65;;;;;;;22.87;74.49;101313.81;5049043;28;20040;-51
2023/09/16 08:55:55;;;;;;;11.30;9.52;;;;;;;23.01;73.80;101320.22;5047406;28;20033;-51
2023/09/16 08:58:21;;;;;;;11.05;9.95;;;;;;;23.04;70.50;101322.56;5050454;28;20025;-51
2023/09/16 09:00:46;;;;;;;13.35;9.70;;;;;;;23.16;70.36;101320.25;5051524;28;20040;-51
2023/09/16 09:03:11;;;;;;;13.63;10.05;;;;;;;23.24;70.05;101316.59;5044159;28;20032;-51
2023/09/16 09:05:38;;;;;;;12.40;9.98;;;;;;;23.39;71.77;101327.41;5038560;28;20060;-51
2023/09/16 09:08:08;;;;;;;12.25;9.40;;;;;;;23.59;71.34;101319.50;5049896;28;20496;-51
2023/09/16 09:10:36;;;;;;;13.27;9.68;;;;;;;23.75;71.05;101315.72;5048311;28;20281;-53
2023/09/16 09:13:02;;;;;;;12.63;9.80;;;;;;;23.99;69.06;101319.91;5048885;28;20056;-51
2023/09/16 09:15:28;;;;;;;12.77;10.52;;;;;;;24.18;68.85;101319.25;5045786;28;20025;-51
2023/09/16 09:17:57;;;;;;;12.32;10.05;;;;;;;24.39;68.02;101322.97;5049147;28;20036;-53
2023/09/16 09:20:27;;;;;;;12.07;9.40;;;;;;;24.40;67.59;101324.66;5060882;28;20068;-51
2023/09/16 09:22:54;;;;;;;11.02;8.85;;;;;;;24.60;65.72;101338.41;5046764;28;20029;-51
2023/09/16 09:25:24;;;;;;;11.55;9.40;;;;;;;24.77;65.91;101329.94;5046034;28;20036;-51
2023/09/16 09:27:51;;;;;;;13.23;8.88;;;;;;;25.02;65.26;101330.28;5049775;28;20470;-51
2023/09/16 09:30:24;;;;;;;11.20;8.52;;;;;;;25.18;63.27;101335.38;5044295;28;20120;-52
2023/09/16 09:32:49;;;;;;;11.38;8.27;;;;;;;25.30;61.88;101336.50;5045842;28;20107;-51
2023/09/16 09:35:15;;;;;;;12.05;9.27;;;;;;;25.48;60.67;101335.13;5046254;28;20104;-52
2023/09/16 09:37:40;;;;;;;11.40;8.20;;;;;;;25.66;60.73;101329.94;5049902;28;20071;-54
2023/09/16 09:40:13;;;;;;;9.95;7.13;;;;;;;25.89;62.28;101336.03;5049404;28;20025;-53
2023/09/16 09:42:43;;;;;;;9.30;6.70;;;;;;;25.99;56.61;101334.59;5046229;28;20072;-52
2023/09/16 09:45:09;;;;;;;8.70;6.78;;;;;;;25.98;56.56;101341.09;5046964;28;20037;-52
2023/09/16 09:47:38;;;;;;;9.50;6.72;;;;;;;26.15;57.63;101340.69;5048552;28;20033;-51
2023/09/16 09:50:06;;;;;;;7.38;6.68;;;;;;;26.19;56.08;101337.31;5047409;28;20025;-51
2023/09/16 09:52:32;;;;;;;9.82;6.95;;;;;;;26.44;55.50;101333.97;5045821;28;20090;-52
2023/09/16 09:54:58;;;;;;;7.68;5.70;;;;;;;26.57;55.29;101331.22;5046439;28;20050;-51
2023/09/16 09:57:25;;;;;;;7.47;5.70;;;;;;;26.86;55.48;101333.72;5048019;28;20108;-52
2023/09/16 09:59:51;;;;;;;8.60;6.53;;;;;;;27.02;54.72;101332.41;5047692;28;20115;-52
2023/09/16 10:02:16;;;;;;;8.68;6.95;;;;;;;27.08;52.36;101329.66;5043572;28;20562;-51
2023/09/16 10:04:41;;;;;;;9.00;6.90;;;;;;;27.17;50.81;101319.34;5044604;28;20551;-52
2023/09/16 10:07:07;;;;;;;11.63;7.90;;;;;;;27.28;52.61;101326.84;5038116;28;20030;-52
2023/09/16 10:09:32;;;;;;;10.82;8.80;;;;;;;27.36;51.48;101323.06;5049217;28;20051;-52
2023/09/16 10:11:58;;;;;;;13.10;8.30;;;;;;;27.57;51.44;101323.78;5049815;28;20115;-52
2023/09/16 10:14:25;;;;;;;9.15;8.15;;;;;;;27.54;50.67;101310.59;5051325;28;20059;-51
2023/09/16 10:16:50;;;;;;;9.00;8.00;;;;;;;27.75;50.61;101314.88;5048235;28;20025;-52
2023/09/16 10:19:15;;;;;;;9.77;8.00;;;;;;;27.83;51.63;101307.25;5052049;28;20040;-52
2023/09/16 10:21:41;;;;;;;9.05;7.70;;;;;;;28.07;49.80;101315.69;5050876;28;20033;-51
2023/09/16 10:24:08;;;;;;;9.57;7.68;;;;;;;28.14;49.51;101312.91;5045780;28;20422;-51
2023/09/16 10:26:34;;;;;;;9.73;8.77;;;;;;;28.17;49.81;101307.00;5041527;28;20368;-51
2023/09/16 10:29:01;;;;;;;13.18;8.48;;;;;;;28.23;49.84;101314.31;5050533;28;20030;-52
2023/09/16 10:31:28;;;;;;;10.98;8.05;;;;;;;28.29;48.59;101313.41;5050209;28;20060;-51
2023/09/16 10:33:55;;;;;;;10.43;8.40;;;;;;;28.39;48.88;101310.16;5049503;28;20530;-52
2023/09/16 10:36:21;;;;;;;7.88;7.18;;;;;;;28.54;50.47;101307.06;5050086;28;20036;-51
2023/09/16 10:38:48;;;;;;;9.10;7.85;;;;;;;28.77;51.76;101304.53;5055989;28;20111;-51
2023/09/16 10:41:15;;;;;;;10.60;9.20;;;;;;;28.63;49.79;101302.16;5048863;28;20023;-51
2023/09/16 10:43:42;;;;;;;10.25;9.25;;;;;;;28.64;48.71;101301.13;5047573;28;20056;-51
2023/09/16 10:46:09;;;;;;;9.02;8.15;;;;;;;28.60;48.76;101303.47;5051124;28;20017;-51
2023/09/16 10:48:34;;;;;;;10.02;8.18;;;;;;;28.57;48.54;101295.72;5051645;28;20029;-52
2023/09/16 10:51:04;;;;;;;9.48;8.40;;;;;;;28.62;48.62;101284.94;5048547;28;20017;-52
2023/09/16 10:53:36;;;;;;;11.23;8.75;;;;;;;28.62;48.43;101287.69;5049694;28;20029;-51
2023/09/16 10:56:16;;;;;;;8.73;7.82;;;;;;;28.74;50.38;101285.03;5049903;28;20040;-52
2023/09/16 10:58:57;;;;;;;9.23;7.85;;;;;;;28.66;49.44;101288.06;5051815;28;20060;-51
2023/09/16 11:01:33;;;;;;;11.10;7.88;;;;;;;28.86;49.50;101282.34;5043797;28;20039;-52
2023/09/16 11:04:13;;;;;;;12.70;7.75;;;;;;;28.89;49.36;101290.94;5049495;28;20029;-58